sensor_id;sensor_type;location;lat;lon;timestamp;temperature;humidity
10388;DHT22;5240;51.128;4.566;2023-04-06T00:00:49;7.00;99.90
10388;DHT22;5240;51.128;4.566;2023-04-06T00:03:16;7.00;99.90
10388;DHT22;5240;51.128;4.566;2023-04-06T00:05:43;6.90;99.90
10388;DHT22;5240;51.128;4.566;2023-04-06T00:08:10;6.90;99.90
10388;DHT22;5240;51.128;4.566;2023-04-06T00:10:37;7.00;99.90
10388;DHT22;5240;51.128;4.566;2023-04-06T00:13:06;6.90;99.90
10388;DHT22;5240;51.128;4.566;2023-04-06T00:15:34;6.90;99.90
10388;DHT22;5240;51.128;4.566;2023-04-06T00:18:02;6.90;99.90
10388;DHT22;5240;51.128;4.566;2023-04-06T00:20:29;6.80;99.90
10388;DHT22;5240;51.128;4.566;2023-04-06T00:22:56;6.80;99.90
10388;DHT22;5240;51.128;4.566;2023-04-06T00:25:23;6.80;99.90
10388;DHT22;5240;51.128;4.566;2023-04-06T00:27:50;6.80;99.90
10388;DHT22;5240;51.128;4.566;2023-04-06T00:30:19;6.80;99.90
10388;DHT22;5240;51.128;4.566;2023-04-06T00:32:46;6.80;99.90
10388;DHT22;5240;51.128;4.566;2023-04-06T00:35:13;6.80;99.90
10388;DHT22;5240;51.128;4.566;2023-04-06T00:37:40;6.80;99.90
10388;DHT22;5240;51.128;4.566;2023-04-06T00:40:09;6.80;99.90
10388;DHT22;5240;51.128;4.566;2023-04-06T00:42:36;6.80;99.90
10388;DHT22;5240;51.128;4.566;2023-04-06T00:45:03;6.70;99.90
10388;DHT22;5240;51.128;4.566;2023-04-06T00:47:33;6.70;99.90
10388;DHT22;5240;51.128;4.566;2023-04-06T00:50:00;6.70;99.90
10388;DHT22;5240;51.128;4.566;2023-04-06T00:52:27;6.70;99.90
10388;DHT22;5240;51.128;4.566;2023-04-06T00:54:54;6.70;99.90
10388;DHT22;5240;51.128;4.566;2023-04-06T00:57:22;6.60;99.90
10388;DHT22;5240;51.128;4.566;2023-04-06T00:59:49;6.60;99.90
10388;DHT22;5240;51.128;4.566;2023-04-06T01:02:16;6.60;99.90
10388;DHT22;5240;51.128;4.566;2023-04-06T01:04:44;6.70;99.90
10388;DHT22;5240;51.128;4.566;2023-04-06T01:07:11;6.60;99.90
10388;DHT22;5240;51.128;4.566;2023-04-06T01:09:38;6.60;99.90
10388;DHT22;5240;51.128;4.566;2023-04-06T01:12:07;6.60;99.90
10388;DHT22;5240;51.128;4.566;2023-04-06T01:14:34;6.70;99.90
10388;DHT22;5240;51.128;4.566;2023-04-06T01:17:01;6.70;99.90
10388;DHT22;5240;51.128;4.566;2023-04-06T01:19:28;6.80;99.90
10388;DHT22;5240;51.128;4.566;2023-04-06T01:21:57;6.80;99.90
10388;DHT22;5240;51.128;4.566;2023-04-06T01:24:25;6.70;99.90
10388;DHT22;5240;51.128;4.566;2023-04-06T01:26:52;6.70;99.90
10388;DHT22;5240;51.128;4.566;2023-04-06T01:29:20;6.80;99.90
10388;DHT22;5240;51.128;4.566;2023-04-06T01:31:47;6.80;99.90
10388;DHT22;5240;51.128;4.566;2023-04-06T01:34:14;6.80;99.90
10388;DHT22;5240;51.128;4.566;2023-04-06T01:36:41;6.70;99.90
10388;DHT22;5240;51.128;4.566;2023-04-06T01:39:08;6.80;99.90
10388;DHT22;5240;51.128;4.566;2023-04-06T01:41:36;6.80;99.90
10388;DHT22;5240;51.128;4.566;2023-04-06T01:44:04;6.70;99.90
10388;DHT22;5240;51.128;4.566;2023-04-06T01:46:31;6.70;99.90
10388;DHT22;5240;51.128;4.566;2023-04-06T01:48:58;6.70;99.90
10388;DHT22;5240;51.128;4.566;2023-04-06T01:51:25;6.80;99.90
10388;DHT22;5240;51.128;4.566;2023-04-06T01:53:52;6.70;99.90
10388;DHT22;5240;51.128;4.566;2023-04-06T01:56:20;6.70;99.90
10388;DHT22;5240;51.128;4.566;2023-04-06T01:58:49;6.70;99.90
10388;DHT22;5240;51.128;4.566;2023-04-06T02:01:16;6.70;99.90
10388;DHT22;5240;51.128;4.566;2023-04-06T02:03:43;6.70;99.90
10388;DHT22;5240;51.128;4.566;2023-04-06T02:06:10;6.70;99.90
10388;DHT22;5240;51.128;4.566;2023-04-06T02:08:37;6.70;99.90
10388;DHT22;5240;51.128;4.566;2023-04-06T02:11:04;6.70;99.90
10388;DHT22;5240;51.128;4.566;2023-04-06T02:13:31;6.60;99.90
10388;DHT22;5240;51.128;4.566;2023-04-06T02:15:59;6.60;99.90
10388;DHT22;5240;51.128;4.566;2023-04-06T02:18:28;6.70;99.90
10388;DHT22;5240;51.128;4.566;2023-04-06T02:20:55;6.60;99.90
10388;DHT22;5240;51.128;4.566;2023-04-06T02:23:22;6.60;99.90
10388;DHT22;5240;51.128;4.566;2023-04-06T02:25:49;6.60;99.90
10388;DHT22;5240;51.128;4.566;2023-04-06T02:28:16;6.60;99.90
10388;DHT22;5240;51.128;4.566;2023-04-06T02:30:43;6.60;99.90
10388;DHT22;5240;51.128;4.566;2023-04-06T02:33:12;6.50;99.90
10388;DHT22;5240;51.128;4.566;2023-04-06T02:35:39;6.50;99.90
10388;DHT22;5240;51.128;4.566;2023-04-06T02:38:06;6.50;99.90
10388;DHT22;5240;51.128;4.566;2023-04-06T02:40:33;6.50;99.90
10388;DHT22;5240;51.128;4.566;2023-04-06T02:43:00;6.40;99.90
10388;DHT22;5240;51.128;4.566;2023-04-06T02:45:27;6.40;99.90
10388;DHT22;5240;51.128;4.566;2023-04-06T02:47:54;6.40;99.90
10388;DHT22;5240;51.128;4.566;2023-04-06T02:50:22;6.40;99.90
10388;DHT22;5240;51.128;4.566;2023-04-06T02:52:50;6.40;99.90
10388;DHT22;5240;51.128;4.566;2023-04-06T02:55:17;6.40;99.90
10388;DHT22;5240;51.128;4.566;2023-04-06T02:57:45;6.40;99.90
10388;DHT22;5240;51.128;4.566;2023-04-06T03:00:13;6.30;99.90
10388;DHT22;5240;51.128;4.566;2023-04-06T03:02:40;6.30;99.90
10388;DHT22;5240;51.128;4.566;2023-04-06T03:05:07;6.30;99.90
10388;DHT22;5240;51.128;4.566;2023-04-06T03:07:35;6.20;99.90
10388;DHT22;5240;51.128;4.566;2023-04-06T03:10:03;6.30;99.90
10388;DHT22;5240;51.128;4.566;2023-04-06T03:12:30;6.30;99.90
10388;DHT22;5240;51.128;4.566;2023-04-06T03:14:57;6.30;99.90
10388;DHT22;5240;51.128;4.566;2023-04-06T03:17:24;6.30;99.90
10388;DHT22;5240;51.128;4.566;2023-04-06T03:19:51;6.30;99.90
10388;DHT22;5240;51.128;4.566;2023-04-06T03:22:19;6.30;99.90
10388;DHT22;5240;51.128;4.566;2023-04-06T03:24:48;6.30;99.90
10388;DHT22;5240;51.128;4.566;2023-04-06T03:27:15;6.40;99.90
10388;DHT22;5240;51.128;4.566;2023-04-06T03:29:42;6.40;99.90
10388;DHT22;5240;51.128;4.566;2023-04-06T03:32:09;6.40;99.90
10388;DHT22;5240;51.128;4.566;2023-04-06T03:34:36;6.30;99.90
10388;DHT22;5240;51.128;4.566;2023-04-06T03:37:03;6.30;99.90
10388;DHT22;5240;51.128;4.566;2023-04-06T03:39:30;6.30;99.90
10388;DHT22;5240;51.128;4.566;2023-04-06T03:41:59;6.30;99.90
10388;DHT22;5240;51.128;4.566;2023-04-06T03:44:26;6.30;99.90
10388;DHT22;5240;51.128;4.566;2023-04-06T03:46:53;6.30;99.90
10388;DHT22;5240;51.128;4.566;2023-04-06T03:49:20;6.30;99.90
10388;DHT22;5240;51.128;4.566;2023-04-06T03:51:47;6.30;99.90
10388;DHT22;5240;51.128;4.566;2023-04-06T03:54:14;6.30;99.90
10388;DHT22;5240;51.128;4.566;2023-04-06T03:56:41;6.30;99.90
10388;DHT22;5240;51.128;4.566;2023-04-06T03:59:10;6.30;99.90
10388;DHT22;5240;51.128;4.566;2023-04-06T04:01:37;6.30;99.90
10388;DHT22;5240;51.128;4.566;2023-04-06T04:04:05;6.30;99.90
10388;DHT22;5240;51.128;4.566;2023-04-06T04:06:32;6.30;99.90
10388;DHT22;5240;51.128;4.566;2023-04-06T04:08:59;6.20;99.90
10388;DHT22;5240;51.128;4.566;2023-04-06T04:11:26;6.20;99.90
10388;DHT22;5240;51.128;4.566;2023-04-06T04:13:53;6.20;99.90
10388;DHT22;5240;51.128;4.566;2023-04-06T04:16:22;6.20;99.90
10388;DHT22;5240;51.128;4.566;2023-04-06T04:18:49;6.30;99.90
10388;DHT22;5240;51.128;4.566;2023-04-06T04:21:16;6.30;99.90
10388;DHT22;5240;51.128;4.566;2023-04-06T04:23:43;6.30;99.90
10388;DHT22;5240;51.128;4.566;2023-04-06T04:26:10;6.30;99.90
10388;DHT22;5240;51.128;4.566;2023-04-06T04:28:37;6.30;99.90
10388;DHT22;5240;51.128;4.566;2023-04-06T04:31:04;6.30;99.90
10388;DHT22;5240;51.128;4.566;2023-04-06T04:33:33;6.30;99.90
10388;DHT22;5240;51.128;4.566;2023-04-06T04:36:00;6.40;99.90
10388;DHT22;5240;51.128;4.566;2023-04-06T04:38:27;6.40;99.90
10388;DHT22;5240;51.128;4.566;2023-04-06T04:40:54;6.40;99.90
10388;DHT22;5240;51.128;4.566;2023-04-06T04:43:22;6.40;99.90
10388;DHT22;5240;51.128;4.566;2023-04-06T04:45:49;6.40;99.90
10388;DHT22;5240;51.128;4.566;2023-04-06T04:48:16;6.40;99.90
10388;DHT22;5240;51.128;4.566;2023-04-06T04:50:44;6.40;99.90
10388;DHT22;5240;51.128;4.566;2023-04-06T04:53:11;6.50;99.90
10388;DHT22;5240;51.128;4.566;2023-04-06T04:55:38;6.40;99.90
10388;DHT22;5240;51.128;4.566;2023-04-06T04:58:06;6.40;99.90
10388;DHT22;5240;51.128;4.566;2023-04-06T05:00:34;6.40;99.90
10388;DHT22;5240;51.128;4.566;2023-04-06T05:03:01;6.40;99.90
10388;DHT22;5240;51.128;4.566;2023-04-06T05:05:29;6.40;99.90
10388;DHT22;5240;51.128;4.566;2023-04-06T05:07:58;6.50;99.90
10388;DHT22;5240;51.128;4.566;2023-04-06T05:10:25;6.50;99.90
10388;DHT22;5240;51.128;4.566;2023-04-06T05:12:53;6.60;99.90
10388;DHT22;5240;51.128;4.566;2023-04-06T05:15:20;6.50;99.90
10388;DHT22;5240;51.128;4.566;2023-04-06T05:17:47;6.50;99.90
10388;DHT22;5240;51.128;4.566;2023-04-06T05:20:14;6.50;99.90
10388;DHT22;5240;51.128;4.566;2023-04-06T05:22:41;6.50;99.90
10388;DHT22;5240;51.128;4.566;2023-04-06T05:25:10;6.50;99.90
10388;DHT22;5240;51.128;4.566;2023-04-06T05:27:37;6.50;99.90
10388;DHT22;5240;51.128;4.566;2023-04-06T05:30:06;6.60;99.90
10388;DHT22;5240;51.128;4.566;2023-04-06T05:32:33;6.60;99.90
10388;DHT22;5240;51.128;4.566;2023-04-06T05:35:00;6.60;99.90
10388;DHT22;5240;51.128;4.566;2023-04-06T05:37:27;6.60;99.90
10388;DHT22;5240;51.128;4.566;2023-04-06T05:39:54;6.50;99.90
10388;DHT22;5240;51.128;4.566;2023-04-06T05:42:23;6.60;99.90
10388;DHT22;5240;51.128;4.566;2023-04-06T05:44:51;6.60;99.90
10388;DHT22;5240;51.128;4.566;2023-04-06T05:47:18;6.70;99.90
10388;DHT22;5240;51.128;4.566;2023-04-06T05:49:45;6.70;99.90
10388;DHT22;5240;51.128;4.566;2023-04-06T05:52:12;6.80;99.90
10388;DHT22;5240;51.128;4.566;2023-04-06T05:54:39;6.80;99.90
10388;DHT22;5240;51.128;4.566;2023-04-06T05:57:06;6.80;99.90
10388;DHT22;5240;51.128;4.566;2023-04-06T05:59:35;6.80;99.90
10388;DHT22;5240;51.128;4.566;2023-04-06T06:02:02;6.80;99.90
10388;DHT22;5240;51.128;4.566;2023-04-06T06:04:30;6.90;99.90
10388;DHT22;5240;51.128;4.566;2023-04-06T06:06:57;7.00;99.90
10388;DHT22;5240;51.128;4.566;2023-04-06T06:09:24;7.10;99.90
10388;DHT22;5240;51.128;4.566;2023-04-06T06:11:51;7.10;99.90
10388;DHT22;5240;51.128;4.566;2023-04-06T06:14:19;7.10;99.90
10388;DHT22;5240;51.128;4.566;2023-04-06T06:16:48;7.20;99.90
10388;DHT22;5240;51.128;4.566;2023-04-06T06:19:15;7.20;99.90
10388;DHT22;5240;51.128;4.566;2023-04-06T06:21:42;7.20;99.90
10388;DHT22;5240;51.128;4.566;2023-04-06T06:24:10;7.20;99.90
10388;DHT22;5240;51.128;4.566;2023-04-06T06:26:37;7.40;99.90
10388;DHT22;5240;51.128;4.566;2023-04-06T06:29:05;7.40;99.90
10388;DHT22;5240;51.128;4.566;2023-04-06T06:31:33;7.40;99.90
10388;DHT22;5240;51.128;4.566;2023-04-06T06:34:02;7.40;99.90
10388;DHT22;5240;51.128;4.566;2023-04-06T06:36:29;7.40;99.90
10388;DHT22;5240;51.128;4.566;2023-04-06T06:38:57;7.40;99.90
10388;DHT22;5240;51.128;4.566;2023-04-06T06:41:26;7.50;99.90
10388;DHT22;5240;51.128;4.566;2023-04-06T06:43:53;7.60;99.90
10388;DHT22;5240;51.128;4.566;2023-04-06T06:46:20;7.60;99.90
10388;DHT22;5240;51.128;4.566;2023-04-06T06:48:47;7.70;99.90
10388;DHT22;5240;51.128;4.566;2023-04-06T06:51:16;7.70;99.90
10388;DHT22;5240;51.128;4.566;2023-04-06T06:53:43;7.70;99.90
10388;DHT22;5240;51.128;4.566;2023-04-06T06:56:10;7.80;99.90
10388;DHT22;5240;51.128;4.566;2023-04-06T06:58:38;7.90;99.90
10388;DHT22;5240;51.128;4.566;2023-04-06T07:01:05;7.90;99.90
10388;DHT22;5240;51.128;4.566;2023-04-06T07:03:32;7.90;99.90
10388;DHT22;5240;51.128;4.566;2023-04-06T07:05:59;8.00;99.90
10388;DHT22;5240;51.128;4.566;2023-04-06T07:08:28;8.00;99.90
10388;DHT22;5240;51.128;4.566;2023-04-06T07:10:55;8.10;99.90
10388;DHT22;5240;51.128;4.566;2023-04-06T07:13:22;8.20;99.90
10388;DHT22;5240;51.128;4.566;2023-04-06T07:15:49;8.10;99.90
10388;DHT22;5240;51.128;4.566;2023-04-06T07:18:16;8.00;99.90
10388;DHT22;5240;51.128;4.566;2023-04-06T07:20:44;8.10;99.90
10388;DHT22;5240;51.128;4.566;2023-04-06T07:23:11;8.00;99.90
10388;DHT22;5240;51.128;4.566;2023-04-06T07:25:39;8.00;99.90
10388;DHT22;5240;51.128;4.566;2023-04-06T07:28:06;7.90;99.90
10388;DHT22;5240;51.128;4.566;2023-04-06T07:30:34;7.90;99.90
10388;DHT22;5240;51.128;4.566;2023-04-06T07:33:01;7.80;99.90
10388;DHT22;5240;51.128;4.566;2023-04-06T07:35:28;7.70;99.90
10388;DHT22;5240;51.128;4.566;2023-04-06T07:37:56;7.70;99.90
10388;DHT22;5240;51.128;4.566;2023-04-06T07:40:23;7.70;99.90
10388;DHT22;5240;51.128;4.566;2023-04-06T07:42:53;7.70;99.90
10388;DHT22;5240;51.128;4.566;2023-04-06T07:45:20;7.80;99.90
10388;DHT22;5240;51.128;4.566;2023-04-06T07:47:47;7.80;99.90
10388;DHT22;5240;51.128;4.566;2023-04-06T07:50:15;7.90;99.90
10388;DHT22;5240;51.128;4.566;2023-04-06T07:52:42;7.90;99.90
10388;DHT22;5240;51.128;4.566;2023-04-06T07:55:10;7.90;99.90
10388;DHT22;5240;51.128;4.566;2023-04-06T07:57:37;7.90;99.90
10388;DHT22;5240;51.128;4.566;2023-04-06T08:00:06;7.90;99.90
10388;DHT22;5240;51.128;4.566;2023-04-06T08:02:35;7.90;99.90
10388;DHT22;5240;51.128;4.566;2023-04-06T08:05:02;7.90;99.90
10388;DHT22;5240;51.128;4.566;2023-04-06T08:07:29;7.90;99.90
10388;DHT22;5240;51.128;4.566;2023-04-06T08:09:56;8.00;99.90
10388;DHT22;5240;51.128;4.566;2023-04-06T08:12:23;8.00;99.90
10388;DHT22;5240;51.128;4.566;2023-04-06T08:14:50;8.00;99.90
10388;DHT22;5240;51.128;4.566;2023-04-06T08:17:19;8.00;99.90
10388;DHT22;5240;51.128;4.566;2023-04-06T08:19:46;8.00;99.90
10388;DHT22;5240;51.128;4.566;2023-04-06T08:22:13;8.10;99.90
10388;DHT22;5240;51.128;4.566;2023-04-06T08:24:40;8.10;99.90
10388;DHT22;5240;51.128;4.566;2023-04-06T08:27:07;8.20;99.90
10388;DHT22;5240;51.128;4.566;2023-04-06T08:29:34;8.10;99.90
10388;DHT22;5240;51.128;4.566;2023-04-06T08:32:02;8.20;99.90
10388;DHT22;5240;51.128;4.566;2023-04-06T08:34:32;8.30;99.90
10388;DHT22;5240;51.128;4.566;2023-04-06T08:36:59;8.30;99.90
10388;DHT22;5240;51.128;4.566;2023-04-06T08:39:27;8.30;99.90
10388;DHT22;5240;51.128;4.566;2023-04-06T08:41:56;8.30;99.90
10388;DHT22;5240;51.128;4.566;2023-04-06T08:44:25;8.30;99.90
10388;DHT22;5240;51.128;4.566;2023-04-06T08:46:52;8.30;99.90
10388;DHT22;5240;51.128;4.566;2023-04-06T08:49:20;8.20;99.90
10388;DHT22;5240;51.128;4.566;2023-04-06T08:51:49;8.20;99.90
10388;DHT22;5240;51.128;4.566;2023-04-06T08:54:16;8.20;99.90
10388;DHT22;5240;51.128;4.566;2023-04-06T08:56:43;8.20;99.90
10388;DHT22;5240;51.128;4.566;2023-04-06T08:59:11;8.30;99.90
10388;DHT22;5240;51.128;4.566;2023-04-06T09:01:40;8.30;99.90
10388;DHT22;5240;51.128;4.566;2023-04-06T09:04:08;8.30;99.90
10388;DHT22;5240;51.128;4.566;2023-04-06T09:06:36;8.30;99.90
10388;DHT22;5240;51.128;4.566;2023-04-06T09:09:05;8.30;99.90
10388;DHT22;5240;51.128;4.566;2023-04-06T09:11:43;8.30;99.90
10388;DHT22;5240;51.128;4.566;2023-04-06T09:14:10;8.40;99.90
10388;DHT22;5240;51.128;4.566;2023-04-06T09:16:40;8.40;99.90
10388;DHT22;5240;51.128;4.566;2023-04-06T09:19:08;8.30;99.90
10388;DHT22;5240;51.128;4.566;2023-04-06T09:21:35;8.30;99.90
10388;DHT22;5240;51.128;4.566;2023-04-06T09:24:05;8.30;99.90
10388;DHT22;5240;51.128;4.566;2023-04-06T09:26:32;8.30;99.90
10388;DHT22;5240;51.128;4.566;2023-04-06T09:29:10;8.30;99.90
10388;DHT22;5240;51.128;4.566;2023-04-06T09:31:48;8.30;99.90
10388;DHT22;5240;51.128;4.566;2023-04-06T09:34:21;8.30;99.90
10388;DHT22;5240;51.128;4.566;2023-04-06T09:36:48;8.30;99.90
10388;DHT22;5240;51.128;4.566;2023-04-06T09:39:20;8.40;99.90
10388;DHT22;5240;51.128;4.566;2023-04-06T09:41:50;8.40;99.90
10388;DHT22;5240;51.128;4.566;2023-04-06T09:44:18;8.40;99.90
10388;DHT22;5240;51.128;4.566;2023-04-06T09:46:46;8.40;99.90
10388;DHT22;5240;51.128;4.566;2023-04-06T09:49:13;8.40;99.90
10388;DHT22;5240;51.128;4.566;2023-04-06T09:51:45;8.40;99.90
10388;DHT22;5240;51.128;4.566;2023-04-06T09:54:19;8.30;99.90
10388;DHT22;5240;51.128;4.566;2023-04-06T09:56:51;8.30;99.90
10388;DHT22;5240;51.128;4.566;2023-04-06T09:59:24;8.30;99.90
10388;DHT22;5240;51.128;4.566;2023-04-06T10:01:53;8.30;99.90
10388;DHT22;5240;51.128;4.566;2023-04-06T10:04:32;8.40;99.90
10388;DHT22;5240;51.128;4.566;2023-04-06T10:07:04;8.30;99.90
10388;DHT22;5240;51.128;4.566;2023-04-06T10:09:35;8.40;99.90
10388;DHT22;5240;51.128;4.566;2023-04-06T10:12:04;8.40;99.90
10388;DHT22;5240;51.128;4.566;2023-04-06T10:14:33;8.30;99.90
10388;DHT22;5240;51.128;4.566;2023-04-06T10:17:02;8.30;99.90
10388;DHT22;5240;51.128;4.566;2023-04-06T10:19:37;8.30;99.90
10388;DHT22;5240;51.128;4.566;2023-04-06T10:22:08;8.20;99.90
10388;DHT22;5240;51.128;4.566;2023-04-06T10:24:39;8.30;99.90
10388;DHT22;5240;51.128;4.566;2023-04-06T10:27:07;8.30;99.90
10388;DHT22;5240;51.128;4.566;2023-04-06T10:29:47;8.20;99.90
10388;DHT22;5240;51.128;4.566;2023-04-06T10:32:14;8.30;99.90
10388;DHT22;5240;51.128;4.566;2023-04-06T10:34:41;8.30;99.90
10388;DHT22;5240;51.128;4.566;2023-04-06T10:37:13;8.30;99.90
10388;DHT22;5240;51.128;4.566;2023-04-06T10:39:51;8.30;99.90
10388;DHT22;5240;51.128;4.566;2023-04-06T10:42:24;8.40;99.90
10388;DHT22;5240;51.128;4.566;2023-04-06T10:44:51;8.30;99.90
10388;DHT22;5240;51.128;4.566;2023-04-06T10:47:18;8.30;99.90
10388;DHT22;5240;51.128;4.566;2023-04-06T10:49:45;8.30;99.90
10388;DHT22;5240;51.128;4.566;2023-04-06T10:52:12;8.20;99.90
10388;DHT22;5240;51.128;4.566;2023-04-06T10:54:41;8.30;99.90
10388;DHT22;5240;51.128;4.566;2023-04-06T10:57:10;8.20;99.90
10388;DHT22;5240;51.128;4.566;2023-04-06T10:59:42;8.20;99.90
10388;DHT22;5240;51.128;4.566;2023-04-06T11:02:19;8.20;99.90
10388;DHT22;5240;51.128;4.566;2023-04-06T11:04:54;8.20;99.90
10388;DHT22;5240;51.128;4.566;2023-04-06T11:07:25;8.20;99.90
10388;DHT22;5240;51.128;4.566;2023-04-06T11:09:54;8.20;99.90
10388;DHT22;5240;51.128;4.566;2023-04-06T11:12:23;8.30;99.90
10388;DHT22;5240;51.128;4.566;2023-04-06T11:14:55;8.30;99.90
10388;DHT22;5240;51.128;4.566;2023-04-06T11:17:27;8.30;99.90
10388;DHT22;5240;51.128;4.566;2023-04-06T11:19:54;8.30;99.90
10388;DHT22;5240;51.128;4.566;2023-04-06T11:22:21;8.30;99.90
10388;DHT22;5240;51.128;4.566;2023-04-06T11:24:49;8.30;99.90
10388;DHT22;5240;51.128;4.566;2023-04-06T11:27:16;8.30;99.90
10388;DHT22;5240;51.128;4.566;2023-04-06T11:29:45;8.30;99.90
10388;DHT22;5240;51.128;4.566;2023-04-06T11:32:20;8.40;99.90
10388;DHT22;5240;51.128;4.566;2023-04-06T11:34:48;8.40;99.90
10388;DHT22;5240;51.128;4.566;2023-04-06T11:37:15;8.40;99.90
10388;DHT22;5240;51.128;4.566;2023-04-06T11:39:47;8.40;99.90
10388;DHT22;5240;51.128;4.566;2023-04-06T11:42:21;8.40;99.90
10388;DHT22;5240;51.128;4.566;2023-04-06T11:44:51;8.50;99.90
10388;DHT22;5240;51.128;4.566;2023-04-06T11:47:20;8.50;99.90
10388;DHT22;5240;51.128;4.566;2023-04-06T11:49:53;8.60;99.90
10388;DHT22;5240;51.128;4.566;2023-04-06T11:52:23;8.50;99.90
10388;DHT22;5240;51.128;4.566;2023-04-06T11:54:53;8.50;99.90
10388;DHT22;5240;51.128;4.566;2023-04-06T11:57:22;8.50;99.90
10388;DHT22;5240;51.128;4.566;2023-04-06T11:59:52;8.50;99.90
10388;DHT22;5240;51.128;4.566;2023-04-06T12:02:19;8.50;99.90
10388;DHT22;5240;51.128;4.566;2023-04-06T12:04:46;8.60;99.90
10388;DHT22;5240;51.128;4.566;2023-04-06T12:07:14;8.60;99.90
10388;DHT22;5240;51.128;4.566;2023-04-06T12:09:41;8.60;99.90
10388;DHT22;5240;51.128;4.566;2023-04-06T12:12:08;8.60;99.90
10388;DHT22;5240;51.128;4.566;2023-04-06T12:14:35;8.70;99.90
10388;DHT22;5240;51.128;4.566;2023-04-06T12:17:04;8.80;99.90
10388;DHT22;5240;51.128;4.566;2023-04-06T12:19:31;8.80;99.90
10388;DHT22;5240;51.128;4.566;2023-04-06T12:21:58;8.70;99.90
10388;DHT22;5240;51.128;4.566;2023-04-06T12:24:25;8.80;99.90
10388;DHT22;5240;51.128;4.566;2023-04-06T12:26:53;8.80;99.90
10388;DHT22;5240;51.128;4.566;2023-04-06T12:29:20;8.90;99.90
10388;DHT22;5240;51.128;4.566;2023-04-06T12:31:47;8.90;99.90
10388;DHT22;5240;51.128;4.566;2023-04-06T12:34:16;9.00;99.90
10388;DHT22;5240;51.128;4.566;2023-04-06T12:36:43;9.10;99.90
10388;DHT22;5240;51.128;4.566;2023-04-06T12:39:10;9.20;99.90
10388;DHT22;5240;51.128;4.566;2023-04-06T12:41:37;9.20;99.90
10388;DHT22;5240;51.128;4.566;2023-04-06T12:44:06;9.20;99.90
10388;DHT22;5240;51.128;4.566;2023-04-06T12:46:33;9.10;99.90
10388;DHT22;5240;51.128;4.566;2023-04-06T12:49:00;9.10;99.90
10388;DHT22;5240;51.128;4.566;2023-04-06T12:51:30;9.00;99.90
10388;DHT22;5240;51.128;4.566;2023-04-06T12:53:57;9.10;99.90
10388;DHT22;5240;51.128;4.566;2023-04-06T12:56:25;9.20;99.90
10388;DHT22;5240;51.128;4.566;2023-04-06T12:58:53;9.10;99.90
10388;DHT22;5240;51.128;4.566;2023-04-06T13:01:20;9.10;99.90
10388;DHT22;5240;51.128;4.566;2023-04-06T13:03:47;9.10;99.90
10388;DHT22;5240;51.128;4.566;2023-04-06T13:06:14;9.10;99.90
10388;DHT22;5240;51.128;4.566;2023-04-06T13:08:43;9.10;99.90
10388;DHT22;5240;51.128;4.566;2023-04-06T13:11:10;9.00;99.90
10388;DHT22;5240;51.128;4.566;2023-04-06T13:13:37;9.00;99.90
10388;DHT22;5240;51.128;4.566;2023-04-06T13:16:06;9.00;99.90
10388;DHT22;5240;51.128;4.566;2023-04-06T13:18:34;9.00;99.90
10388;DHT22;5240;51.128;4.566;2023-04-06T13:21:04;9.00;99.90
10388;DHT22;5240;51.128;4.566;2023-04-06T13:23:31;9.00;99.90
10388;DHT22;5240;51.128;4.566;2023-04-06T13:26:00;9.00;99.90
10388;DHT22;5240;51.128;4.566;2023-04-06T13:28:29;9.00;99.90
10388;DHT22;5240;51.128;4.566;2023-04-06T13:30:58;9.00;99.90
10388;DHT22;5240;51.128;4.566;2023-04-06T13:33:26;8.90;99.90
10388;DHT22;5240;51.128;4.566;2023-04-06T13:35:53;8.80;99.90
10388;DHT22;5240;51.128;4.566;2023-04-06T13:38:20;8.80;99.90
10388;DHT22;5240;51.128;4.566;2023-04-06T13:40:49;8.80;99.90
10388;DHT22;5240;51.128;4.566;2023-04-06T13:43:18;8.80;99.90
10388;DHT22;5240;51.128;4.566;2023-04-06T13:45:49;8.80;99.90
10388;DHT22;5240;51.128;4.566;2023-04-06T13:48:17;8.80;99.90
10388;DHT22;5240;51.128;4.566;2023-04-06T13:50:44;8.80;99.90
10388;DHT22;5240;51.128;4.566;2023-04-06T13:53:11;8.80;99.90
10388;DHT22;5240;51.128;4.566;2023-04-06T13:55:38;8.80;99.90
10388;DHT22;5240;51.128;4.566;2023-04-06T13:58:05;8.90;99.90
10388;DHT22;5240;51.128;4.566;2023-04-06T14:00:34;8.90;99.90
10388;DHT22;5240;51.128;4.566;2023-04-06T14:03:01;8.90;99.90
10388;DHT22;5240;51.128;4.566;2023-04-06T14:05:31;8.90;99.90
10388;DHT22;5240;51.128;4.566;2023-04-06T14:07:58;8.90;99.90
10388;DHT22;5240;51.128;4.566;2023-04-06T14:10:25;8.90;99.90
10388;DHT22;5240;51.128;4.566;2023-04-06T14:12:53;8.80;99.90
10388;DHT22;5240;51.128;4.566;2023-04-06T14:15:20;8.90;99.90
10388;DHT22;5240;51.128;4.566;2023-04-06T14:17:48;8.80;99.90
10388;DHT22;5240;51.128;4.566;2023-04-06T14:20:16;8.80;99.90
10388;DHT22;5240;51.128;4.566;2023-04-06T14:22:43;8.80;99.90
10388;DHT22;5240;51.128;4.566;2023-04-06T14:25:10;8.80;99.90
10388;DHT22;5240;51.128;4.566;2023-04-06T14:27:38;8.90;99.90
10388;DHT22;5240;51.128;4.566;2023-04-06T14:30:06;8.90;99.90
10388;DHT22;5240;51.128;4.566;2023-04-06T14:32:34;8.90;99.90
10388;DHT22;5240;51.128;4.566;2023-04-06T14:35:03;8.90;99.90
10388;DHT22;5240;51.128;4.566;2023-04-06T14:37:30;9.00;99.90
10388;DHT22;5240;51.128;4.566;2023-04-06T14:39:57;9.00;99.90
10388;DHT22;5240;51.128;4.566;2023-04-06T14:42:24;9.00;99.90
10388;DHT22;5240;51.128;4.566;2023-04-06T14:44:51;9.00;99.90
10388;DHT22;5240;51.128;4.566;2023-04-06T14:47:19;9.10;99.90
10388;DHT22;5240;51.128;4.566;2023-04-06T14:49:46;9.10;99.90
10388;DHT22;5240;51.128;4.566;2023-04-06T14:52:15;9.10;99.90
10388;DHT22;5240;51.128;4.566;2023-04-06T14:54:42;9.00;99.90
10388;DHT22;5240;51.128;4.566;2023-04-06T14:57:09;9.00;99.90
10388;DHT22;5240;51.128;4.566;2023-04-06T14:59:36;9.00;99.90
10388;DHT22;5240;51.128;4.566;2023-04-06T15:02:03;9.00;99.90
10388;DHT22;5240;51.128;4.566;2023-04-06T15:04:30;8.90;99.90
10388;DHT22;5240;51.128;4.566;2023-04-06T15:07:00;9.00;99.90
10388;DHT22;5240;51.128;4.566;2023-04-06T15:09:28;9.00;99.90
10388;DHT22;5240;51.128;4.566;2023-04-06T15:11:55;9.00;99.90
10388;DHT22;5240;51.128;4.566;2023-04-06T15:14:22;9.10;99.90
10388;DHT22;5240;51.128;4.566;2023-04-06T15:16:49;9.10;99.90
10388;DHT22;5240;51.128;4.566;2023-04-06T15:19:16;9.10;99.90
10388;DHT22;5240;51.128;4.566;2023-04-06T15:21:43;9.10;99.90
10388;DHT22;5240;51.128;4.566;2023-04-06T15:24:10;9.10;99.90
10388;DHT22;5240;51.128;4.566;2023-04-06T15:26:38;9.10;99.90
10388;DHT22;5240;51.128;4.566;2023-04-06T15:29:05;9.20;99.90
10388;DHT22;5240;51.128;4.566;2023-04-06T15:31:33;9.20;99.90
10388;DHT22;5240;51.128;4.566;2023-04-06T15:34:00;9.10;99.90
10388;DHT22;5240;51.128;4.566;2023-04-06T15:36:28;9.10;99.90
10388;DHT22;5240;51.128;4.566;2023-04-06T15:38:56;9.10;99.90
10388;DHT22;5240;51.128;4.566;2023-04-06T15:41:23;9.20;99.90
10388;DHT22;5240;51.128;4.566;2023-04-06T15:43:52;9.20;99.90
10388;DHT22;5240;51.128;4.566;2023-04-06T15:46:20;9.30;99.90
10388;DHT22;5240;51.128;4.566;2023-04-06T15:48:48;9.30;99.90
10388;DHT22;5240;51.128;4.566;2023-04-06T15:51:15;9.40;99.90
10388;DHT22;5240;51.128;4.566;2023-04-06T15:53:42;9.50;99.90
10388;DHT22;5240;51.128;4.566;2023-04-06T15:56:09;9.50;99.90
10388;DHT22;5240;51.128;4.566;2023-04-06T15:58:36;9.60;99.90
10388;DHT22;5240;51.128;4.566;2023-04-06T16:01:12;9.60;99.90
10388;DHT22;5240;51.128;4.566;2023-04-06T16:03:40;9.70;99.90
10388;DHT22;5240;51.128;4.566;2023-04-06T16:06:07;9.70;99.90